Terminal Aerodrome Forecast
Issued by NWS

Home | Current Version | Previous Version | Text Only | Print | Product List | Glossary On
Versions: 1 2 3 4 5 6 7 8 9 10 11 12 13 14 15 16 17 18 19 20 21 22 23 24 25 26 27 28
000
FTUS41 KBUF 020300 AAA
TAFIAG
TAF AMD
KIAG 020312Z 0203/0224 22008KT P6SM FEW250
     FM020400 20009KT 6SM -SHRA BKN060
     FM020600 22010KT P6SM BKN050
      TEMPO 0209/0213 BKN015
     FM021500 23012G18KT 6SM BR VCTS OVC050CB
     FM021700 24011KT 6SM -SHRA VCTS OVC040CB
     FM022000 24011KT P6SM OVC120=

USA.gov is the U.S. government's official web portal to all federal, state and local government web resources and services.